createdAt,value
2023-01-22T00:02:06.515Z,17.40
2023-01-22T00:04:33.015Z,18.00
2023-01-22T00:06:59.353Z,17.83
2023-01-22T00:09:25.693Z,18.33
2023-01-22T00:11:52.421Z,17.50
2023-01-22T00:14:18.873Z,16.47
2023-01-22T00:16:45.231Z,16.88
2023-01-22T00:19:11.574Z,17.73
2023-01-22T00:21:37.992Z,16.70
2023-01-22T00:24:04.438Z,17.08
2023-01-22T00:26:30.773Z,15.18
2023-01-22T00:28:57.137Z,16.02
2023-01-22T00:31:23.806Z,14.43
2023-01-22T00:33:50.152Z,15.03
2023-01-22T00:36:17.773Z,14.52
2023-01-22T00:41:10.761Z,15.73
2023-01-22T00:43:40.703Z,14.67
2023-01-22T00:46:08.338Z,15.77
2023-01-22T00:51:00.960Z,14.75
2023-01-22T00:53:27.314Z,15.27
2023-01-22T00:56:00.437Z,15.20
2023-01-22T00:58:27.073Z,13.63
2023-01-22T01:00:53.857Z,14.93
2023-01-22T01:03:32.306Z,15.43
2023-01-22T01:06:00.072Z,15.98
2023-01-22T01:08:27.120Z,16.67
2023-01-22T01:10:54.428Z,14.75
2023-01-22T01:13:20.792Z,15.57
2023-01-22T01:15:47.163Z,15.38
2023-01-22T01:18:14.297Z,15.70
2023-01-22T01:20:40.943Z,15.50
2023-01-22T01:23:07.568Z,16.13
2023-01-22T01:25:33.928Z,14.75
2023-01-22T01:28:00.333Z,14.65
2023-01-22T01:30:26.706Z,14.55
2023-01-22T01:32:52.993Z,13.73
2023-01-22T01:35:19.577Z,14.60
2023-01-22T01:37:45.926Z,13.65
2023-01-22T01:40:12.492Z,12.98
2023-01-22T01:42:39.613Z,13.48
2023-01-22T01:45:22.656Z,13.00
2023-01-22T01:47:52.981Z,13.77
2023-01-22T01:50:20.903Z,14.65
2023-01-22T01:52:47.270Z,12.00
2023-01-22T01:55:15.020Z,13.63
2023-01-22T01:57:41.632Z,13.60
2023-01-22T02:00:12.286Z,12.88
2023-01-22T02:02:38.662Z,13.13
2023-01-22T02:05:05.673Z,14.43
2023-01-22T02:07:31.973Z,15.43
2023-01-22T02:09:58.268Z,14.13
2023-01-22T02:12:24.629Z,14.60
2023-01-22T02:14:50.965Z,14.88
2023-01-22T02:17:21.801Z,13.30
2023-01-22T02:19:48.600Z,15.05
2023-01-22T02:22:17.540Z,12.63
2023-01-22T02:24:43.881Z,14.48
2023-01-22T02:27:10.487Z,14.32
2023-01-22T02:29:37.069Z,14.40
2023-01-22T02:32:03.608Z,13.80
2023-01-22T02:34:29.952Z,14.02
2023-01-22T02:36:56.293Z,13.75
2023-01-22T02:39:22.647Z,15.57
2023-01-22T02:41:49.300Z,14.48
2023-01-22T02:44:15.657Z,13.73
2023-01-22T02:46:41.979Z,13.10
2023-01-22T02:49:08.345Z,14.35
2023-01-22T02:51:34.664Z,14.98
2023-01-22T02:54:01.037Z,13.73
2023-01-22T02:56:27.647Z,13.43
2023-01-22T02:58:53.961Z,13.23
2023-01-22T03:01:21.574Z,12.65
2023-01-22T03:06:21.455Z,12.13
2023-01-22T03:08:48.994Z,11.10
2023-01-22T03:11:16.391Z,13.18
2023-01-22T03:14:01.399Z,11.88
2023-01-22T03:16:46.442Z,12.40
2023-01-22T03:19:31.500Z,10.52
2023-01-22T03:21:57.853Z,11.38
2023-01-22T03:24:24.128Z,11.45
2023-01-22T03:26:50.429Z,11.98
2023-01-22T03:29:16.784Z,10.70
2023-01-22T03:31:48.100Z,11.13
2023-01-22T03:34:15.708Z,11.57
2023-01-22T03:36:42.212Z,11.93
2023-01-22T03:39:08.551Z,11.70
2023-01-22T03:41:34.829Z,11.43
2023-01-22T03:44:03.929Z,11.43
2023-01-22T03:46:30.780Z,11.48
2023-01-22T03:48:57.064Z,11.63
2023-01-22T03:51:23.998Z,11.13
2023-01-22T03:53:50.483Z,10.52
2023-01-22T03:56:18.312Z,10.57
2023-01-22T03:58:44.659Z,10.60
2023-01-22T04:01:12.203Z,10.50
2023-01-22T04:06:05.638Z,9.40
2023-01-22T04:08:33.245Z,9.07
2023-01-22T04:13:26.713Z,9.68
2023-01-22T04:15:53.201Z,9.45
2023-01-22T04:18:19.741Z,9.65
2023-01-22T04:20:47.581Z,10.65
2023-01-22T04:23:13.880Z,10.40
2023-01-22T04:25:40.206Z,9.25
2023-01-22T04:28:07.455Z,9.27
2023-01-22T04:30:34.133Z,9.55
2023-01-22T04:33:00.596Z,9.03
2023-01-22T04:35:26.945Z,9.05
2023-01-22T04:37:53.279Z,8.70
2023-01-22T04:40:20.672Z,8.10
2023-01-22T04:42:47.220Z,7.68
2023-01-22T04:45:13.749Z,8.68
2023-01-22T04:47:44.431Z,9.07
2023-01-22T04:50:40.103Z,9.30
2023-01-22T04:53:06.429Z,8.00
2023-01-22T04:55:33.018Z,9.50
2023-01-22T04:58:00.247Z,8.50
2023-01-22T05:00:27.394Z,8.93
2023-01-22T05:03:00.703Z,7.32
2023-01-22T05:05:27.691Z,9.13
2023-01-22T05:07:54.143Z,8.85
2023-01-22T05:10:21.250Z,8.38
2023-01-22T05:12:47.708Z,8.90
2023-01-22T05:15:23.546Z,8.93
2023-01-22T05:17:50.748Z,9.98
2023-01-22T05:20:17.492Z,9.13
2023-01-22T05:22:44.371Z,8.43
2023-01-22T05:25:10.674Z,10.88
2023-01-22T05:27:37.008Z,8.80
2023-01-22T05:30:04.074Z,8.98
2023-01-22T05:32:30.400Z,9.80
2023-01-22T05:34:56.824Z,9.30
2023-01-22T05:37:23.203Z,8.15
2023-01-22T05:39:49.606Z,9.35
2023-01-22T05:42:16.288Z,9.35
2023-01-22T05:44:42.726Z,9.13
2023-01-22T05:47:09.405Z,8.73
2023-01-22T05:49:35.742Z,8.57
2023-01-22T05:52:02.069Z,8.27
2023-01-22T05:54:28.428Z,8.80
2023-01-22T05:56:54.730Z,8.93
2023-01-22T05:59:21.054Z,8.63
2023-01-22T06:01:47.390Z,9.43
2023-01-22T06:04:13.645Z,7.97
2023-01-22T06:06:39.967Z,8.38
2023-01-22T06:09:06.305Z,8.68
2023-01-22T06:11:32.625Z,8.65
2023-01-22T06:13:58.997Z,7.82
2023-01-22T06:16:25.340Z,8.23
2023-01-22T06:18:51.641Z,8.07
2023-01-22T06:21:17.932Z,8.45
2023-01-22T06:23:44.295Z,8.88
2023-01-22T06:26:10.610Z,7.30
2023-01-22T06:28:36.938Z,8.25
2023-01-22T06:31:05.679Z,7.82
2023-01-22T06:33:33.574Z,8.25
2023-01-22T06:36:00.135Z,7.75
2023-01-22T06:38:26.544Z,7.10
2023-01-22T06:40:53.753Z,7.65
2023-01-22T06:43:20.113Z,7.93
2023-01-22T06:45:46.500Z,7.70
2023-01-22T06:48:13.083Z,8.20
2023-01-22T06:50:39.399Z,9.13
2023-01-22T06:53:05.825Z,7.88
2023-01-22T06:55:32.167Z,9.43
2023-01-22T06:57:58.544Z,8.30
2023-01-22T07:00:24.868Z,7.60
2023-01-22T07:02:52.440Z,7.47
2023-01-22T07:05:20.116Z,8.50
2023-01-22T07:10:12.801Z,6.82
2023-01-22T07:12:39.082Z,7.07
2023-01-22T07:15:07.835Z,7.13
2023-01-22T07:17:34.527Z,7.63
2023-01-22T07:20:00.858Z,7.37
2023-01-22T07:22:27.179Z,6.90
2023-01-22T07:24:53.538Z,6.95
2023-01-22T07:27:19.905Z,7.25
2023-01-22T07:29:47.482Z,6.68
2023-01-22T07:32:13.840Z,8.00
2023-01-22T07:34:40.206Z,7.63
2023-01-22T07:37:06.574Z,8.38
2023-01-22T07:39:32.906Z,7.43
2023-01-22T07:42:01.292Z,7.90
2023-01-22T07:44:27.835Z,7.82
2023-01-22T07:46:54.204Z,7.15
2023-01-22T07:49:20.605Z,8.40
2023-01-22T07:51:47.103Z,8.02
2023-01-22T07:54:13.460Z,7.88
2023-01-22T07:56:39.832Z,8.77
2023-01-22T07:59:06.138Z,8.02
2023-01-22T08:01:32.452Z,8.43
2023-01-22T08:03:58.857Z,8.15
2023-01-22T08:06:25.182Z,8.93
2023-01-22T08:08:51.475Z,8.63
2023-01-22T08:11:18.038Z,8.45
2023-01-22T08:13:44.368Z,8.63
2023-01-22T08:16:10.855Z,8.90
2023-01-22T08:18:37.321Z,8.57
2023-01-22T08:21:04.012Z,9.30
2023-01-22T08:23:30.338Z,8.63
2023-01-22T08:26:00.576Z,7.95
2023-01-22T08:28:27.144Z,8.52
2023-01-22T08:30:56.925Z,8.52
2023-01-22T08:33:23.190Z,9.02
2023-01-22T08:35:50.155Z,8.55
2023-01-22T08:38:16.600Z,7.95
2023-01-22T08:40:42.936Z,8.10
2023-01-22T08:43:09.359Z,8.50
2023-01-22T08:45:35.610Z,8.65
2023-01-22T08:48:01.983Z,8.15
2023-01-22T08:50:29.686Z,8.80
2023-01-22T08:55:22.280Z,8.13
2023-01-22T08:57:52.573Z,7.82
2023-01-22T09:00:19.276Z,8.25
2023-01-22T09:02:45.846Z,9.00
2023-01-22T09:05:12.085Z,10.40
2023-01-22T09:07:38.431Z,8.13
2023-01-22T09:10:08.069Z,7.38
2023-01-22T09:12:34.627Z,8.27
2023-01-22T09:15:01.005Z,8.30
2023-01-22T09:17:28.159Z,7.95
2023-01-22T09:19:54.459Z,8.13
2023-01-22T09:22:20.812Z,7.95
2023-01-22T09:24:47.114Z,8.35
2023-01-22T09:27:13.590Z,7.90
2023-01-22T09:29:40.038Z,7.45
2023-01-22T09:32:06.370Z,7.55
2023-01-22T09:34:33.416Z,7.85
2023-01-22T09:37:02.590Z,8.13
2023-01-22T09:39:28.893Z,7.32
2023-01-22T09:41:56.998Z,8.60
2023-01-22T09:44:30.100Z,8.00
2023-01-22T09:46:58.279Z,8.38
2023-01-22T09:49:28.287Z,8.02
2023-01-22T09:51:56.135Z,8.35
2023-01-22T09:54:22.946Z,8.32
2023-01-22T09:56:51.078Z,7.55
2023-01-22T09:59:19.323Z,7.30
2023-01-22T10:01:46.685Z,7.82
2023-01-22T10:04:34.844Z,7.63
2023-01-22T10:07:02.786Z,8.23
2023-01-22T10:09:30.925Z,8.85
2023-01-22T10:11:59.146Z,8.00
2023-01-22T10:14:27.585Z,7.97
2023-01-22T10:16:54.463Z,8.00
2023-01-22T10:19:42.351Z,8.10
2023-01-22T10:22:13.860Z,8.88
2023-01-22T10:24:40.181Z,9.35
2023-01-22T10:27:11.342Z,10.35
2023-01-22T10:29:39.005Z,8.02
2023-01-22T10:34:34.486Z,7.93
2023-01-22T10:37:02.558Z,8.10
2023-01-22T10:39:38.045Z,8.48
2023-01-22T10:42:04.412Z,9.13
2023-01-22T10:44:30.763Z,8.38
2023-01-22T10:47:06.856Z,8.27
2023-01-22T10:49:33.192Z,8.75
2023-01-22T10:52:02.242Z,7.88
2023-01-22T10:54:43.871Z,8.40
2023-01-22T10:57:26.970Z,8.13
2023-01-22T10:59:55.611Z,9.02
2023-01-22T11:02:23.578Z,8.82
2023-01-22T11:04:50.289Z,8.40
2023-01-22T11:07:32.609Z,8.47
2023-01-22T11:10:01.851Z,8.95
2023-01-22T11:12:34.138Z,9.70
2023-01-22T11:15:09.486Z,9.48
2023-01-22T11:17:40.435Z,8.55
2023-01-22T11:20:17.170Z,8.43
2023-01-22T11:22:45.071Z,8.38
2023-01-22T11:25:11.458Z,9.18
2023-01-22T11:27:37.794Z,9.95
2023-01-22T11:30:04.121Z,9.55
2023-01-22T11:32:33.414Z,9.07
2023-01-22T11:35:02.738Z,11.00
2023-01-22T11:37:48.063Z,9.32
2023-01-22T11:40:17.734Z,8.45
2023-01-22T11:42:57.700Z,9.25
2023-01-22T11:45:23.996Z,10.23
2023-01-22T11:47:53.118Z,9.60
2023-01-22T11:50:26.350Z,9.65
2023-01-22T11:52:58.784Z,9.57
2023-01-22T11:55:44.085Z,8.30
2023-01-22T11:58:25.777Z,9.18
2023-01-22T12:01:09.909Z,9.40
2023-01-22T12:03:36.342Z,9.95
2023-01-22T12:06:12.649Z,8.65
2023-01-22T12:08:48.771Z,8.55
2023-01-22T12:11:34.786Z,9.00
2023-01-22T12:14:19.973Z,9.32
2023-01-22T12:17:11.779Z,9.25
2023-01-22T12:19:43.559Z,9.80
2023-01-22T12:22:28.752Z,8.88
2023-01-22T12:25:01.888Z,9.93
2023-01-22T12:27:49.211Z,9.18
2023-01-22T12:30:18.397Z,11.35
2023-01-22T12:32:48.328Z,9.45
2023-01-22T12:35:19.105Z,10.82
2023-01-22T12:38:04.316Z,10.23
2023-01-22T12:40:31.875Z,10.20
2023-01-22T12:43:02.053Z,11.23
2023-01-22T12:45:37.671Z,10.90
2023-01-22T12:48:10.151Z,12.05
2023-01-22T12:50:37.713Z,11.60
2023-01-22T12:53:05.123Z,11.70
2023-01-22T12:55:34.178Z,12.13
2023-01-22T12:58:01.535Z,9.35
2023-01-22T13:00:35.757Z,11.68
2023-01-22T13:03:30.932Z,10.50
2023-01-22T13:05:58.478Z,10.75
2023-01-22T13:08:35.484Z,11.68
2023-01-22T13:11:03.686Z,11.48
2023-01-22T13:13:32.787Z,10.45
2023-01-22T13:16:01.905Z,9.25
2023-01-22T13:18:30.920Z,10.77
2023-01-22T13:21:08.151Z,9.38
2023-01-22T13:23:35.967Z,10.27
2023-01-22T13:26:03.500Z,13.00
2023-01-22T13:28:30.561Z,14.20
2023-01-22T13:31:01.796Z,13.70
2023-01-22T13:33:28.457Z,11.00
2023-01-22T13:35:55.283Z,11.98
2023-01-22T13:38:23.270Z,13.93
2023-01-22T13:40:53.494Z,15.00
2023-01-22T13:43:21.062Z,11.63
2023-01-22T13:48:17.964Z,12.15
2023-01-22T13:50:52.076Z,11.45
2023-01-22T13:53:23.124Z,11.77
2023-01-22T13:55:49.731Z,11.75
2023-01-22T13:58:46.508Z,11.40
2023-01-22T14:01:26.549Z,14.20
2023-01-22T14:04:03.476Z,11.85
2023-01-22T14:06:30.061Z,11.35
2023-01-22T14:08:57.644Z,11.00
2023-01-22T14:13:51.968Z,10.05
2023-01-22T14:16:18.328Z,12.77
2023-01-22T14:18:47.746Z,15.10
2023-01-22T14:21:14.452Z,13.68
2023-01-22T14:23:42.654Z,11.43
2023-01-22T14:26:09.233Z,10.38
2023-01-22T14:28:35.893Z,12.05
2023-01-22T14:31:02.406Z,10.97
2023-01-22T14:33:32.733Z,12.70
2023-01-22T14:35:59.297Z,12.50
2023-01-22T14:38:26.067Z,12.52
2023-01-22T14:40:52.640Z,12.00
2023-01-22T14:43:19.051Z,13.65
2023-01-22T14:45:46.135Z,11.55
2023-01-22T14:48:13.378Z,15.77
2023-01-22T14:50:40.656Z,13.55
2023-01-22T14:53:07.469Z,11.90
2023-01-22T14:55:33.751Z,13.95
2023-01-22T14:58:00.153Z,13.20
2023-01-22T15:00:27.670Z,15.00
2023-01-22T15:02:54.558Z,14.00
2023-01-22T15:05:20.852Z,11.48
2023-01-22T15:07:47.383Z,12.68
2023-01-22T15:10:13.765Z,11.45
2023-01-22T15:12:40.278Z,11.68
2023-01-22T15:15:08.874Z,11.80
2023-01-22T15:17:36.238Z,13.15
2023-01-22T15:20:04.197Z,12.10
2023-01-22T15:22:30.709Z,12.30
2023-01-22T15:24:57.067Z,12.45
2023-01-22T15:27:23.494Z,14.55
2023-01-22T15:29:49.852Z,12.25
2023-01-22T15:32:16.131Z,43.22
2023-01-22T15:34:42.463Z,28.27
2023-01-22T15:37:09.076Z,21.60
2023-01-22T15:39:35.434Z,12.25
2023-01-22T15:42:01.759Z,21.33
2023-01-22T15:44:28.177Z,10.60
2023-01-22T15:46:55.638Z,12.02
2023-01-22T15:49:21.880Z,10.80
2023-01-22T15:51:48.160Z,11.15
2023-01-22T15:54:15.533Z,12.50
2023-01-22T15:56:42.264Z,11.18
2023-01-22T15:59:08.667Z,11.07
2023-01-22T16:01:35.152Z,13.60
2023-01-22T16:04:03.028Z,13.48
2023-01-22T16:06:30.771Z,12.07
2023-01-22T16:08:57.806Z,10.15
2023-01-22T16:11:24.892Z,11.70
2023-01-22T16:13:51.249Z,11.80
2023-01-22T16:16:20.098Z,10.30
2023-01-22T16:18:46.870Z,11.73
2023-01-22T16:21:13.754Z,12.77
2023-01-22T16:23:42.124Z,10.65
2023-01-22T16:26:10.631Z,11.73
2023-01-22T16:28:37.269Z,10.30
2023-01-22T16:31:04.657Z,10.57
2023-01-22T16:33:31.583Z,11.35
2023-01-22T16:35:59.102Z,11.98
2023-01-22T16:38:25.543Z,12.45
2023-01-22T16:40:53.019Z,10.00
2023-01-22T16:43:19.309Z,11.05
2023-01-22T16:45:45.677Z,10.75
2023-01-22T16:48:12.012Z,11.63
2023-01-22T16:50:38.365Z,18.17
2023-01-22T16:53:04.668Z,19.15
2023-01-22T16:55:31.002Z,13.90
2023-01-22T16:57:58.840Z,15.70
2023-01-22T17:00:25.197Z,12.98
2023-01-22T17:02:51.573Z,14.10
2023-01-22T17:05:17.960Z,12.15
2023-01-22T17:07:44.290Z,12.73
2023-01-22T17:10:10.892Z,13.45
2023-01-22T17:12:37.266Z,20.33
2023-01-22T17:15:03.722Z,12.95
2023-01-22T17:17:30.021Z,11.80
2023-01-22T17:19:56.419Z,13.13
2023-01-22T17:22:24.241Z,12.10
2023-01-22T17:24:50.670Z,12.82
2023-01-22T17:27:18.623Z,12.73
2023-01-22T17:29:45.083Z,12.23
2023-01-22T17:32:11.438Z,14.85
2023-01-22T17:34:37.709Z,16.67
2023-01-22T17:37:10.267Z,21.48
2023-01-22T17:39:37.497Z,17.73
2023-01-22T17:42:03.901Z,15.95
2023-01-22T17:44:30.257Z,13.77
2023-01-22T17:46:59.809Z,12.85
2023-01-22T17:49:26.575Z,24.63
2023-01-22T17:51:52.955Z,27.87
2023-01-22T17:54:19.793Z,12.68
2023-01-22T17:56:48.950Z,15.98
2023-01-22T17:59:15.378Z,16.67
2023-01-22T18:01:41.875Z,21.27
2023-01-22T18:04:09.385Z,13.05
2023-01-22T18:06:36.799Z,24.73
2023-01-22T18:09:05.115Z,16.40
2023-01-22T18:11:32.987Z,15.73
2023-01-22T18:14:01.074Z,15.02
2023-01-22T18:16:28.566Z,13.25
2023-01-22T18:18:54.961Z,13.65
2023-01-22T18:21:21.915Z,14.63
2023-01-22T18:23:48.841Z,15.73
2023-01-22T18:26:15.557Z,13.93
2023-01-22T18:28:41.932Z,13.57
2023-01-22T18:31:10.251Z,16.08
2023-01-22T18:33:37.615Z,12.95
2023-01-22T18:36:10.604Z,14.52
2023-01-22T18:38:37.478Z,14.95
2023-01-22T18:41:11.111Z,13.93
2023-01-22T18:43:38.259Z,15.25
2023-01-22T18:46:05.903Z,13.18
2023-01-22T18:50:58.723Z,18.13
2023-01-22T18:53:25.156Z,15.13
2023-01-22T18:55:51.554Z,15.73
2023-01-22T18:58:36.332Z,14.52
2023-01-22T19:01:13.508Z,15.32
2023-01-22T19:03:40.906Z,13.77
2023-01-22T19:06:14.705Z,12.90
2023-01-22T19:08:45.493Z,13.35
2023-01-22T19:11:12.294Z,12.32
2023-01-22T19:13:39.648Z,14.13
2023-01-22T19:16:06.939Z,14.18
2023-01-22T19:18:33.376Z,12.88
2023-01-22T19:21:19.425Z,12.80
2023-01-22T19:23:47.206Z,13.73
2023-01-22T19:26:23.909Z,13.38
2023-01-22T19:28:51.932Z,13.85
2023-01-22T19:31:19.604Z,12.68
2023-01-22T19:33:46.430Z,12.70
2023-01-22T19:36:13.057Z,12.40
2023-01-22T19:38:39.675Z,15.10
2023-01-22T19:41:06.272Z,13.48
2023-01-22T19:43:32.880Z,12.75
2023-01-22T19:46:07.353Z,12.32
2023-01-22T19:48:34.519Z,16.00
2023-01-22T19:51:01.838Z,14.02
2023-01-22T19:53:28.779Z,15.60
2023-01-22T19:55:55.353Z,13.88
2023-01-22T19:58:21.653Z,15.05
2023-01-22T20:00:48.017Z,15.95
2023-01-22T20:03:14.549Z,14.98
2023-01-22T20:05:41.691Z,14.13
2023-01-22T20:08:08.453Z,13.32
2023-01-22T20:10:37.324Z,13.27
2023-01-22T20:13:04.320Z,13.60
2023-01-22T20:15:30.717Z,11.95
2023-01-22T20:17:57.352Z,12.90
2023-01-22T20:20:23.724Z,13.00
2023-01-22T20:22:52.308Z,12.57
2023-01-22T20:25:21.031Z,15.25
2023-01-22T20:27:48.499Z,15.48
2023-01-22T20:30:14.936Z,14.00
2023-01-22T20:32:41.311Z,15.30
2023-01-22T20:35:07.860Z,15.70
2023-01-22T20:37:34.188Z,15.73
2023-01-22T20:40:00.885Z,16.02
2023-01-22T20:42:28.299Z,13.30
2023-01-22T20:44:54.660Z,15.30
2023-01-22T20:47:20.930Z,16.50
2023-01-22T20:49:47.320Z,19.85
2023-01-22T20:52:14.818Z,13.98
2023-01-22T20:54:54.821Z,12.45
2023-01-22T20:57:27.681Z,14.20
2023-01-22T20:59:54.125Z,15.82
2023-01-22T21:02:20.470Z,16.15
2023-01-22T21:04:49.898Z,14.55
2023-01-22T21:07:16.224Z,14.27
2023-01-22T21:09:42.643Z,13.88
2023-01-22T21:12:09.032Z,13.90
2023-01-22T21:14:35.549Z,13.02
2023-01-22T21:17:01.890Z,13.57
2023-01-22T21:19:29.301Z,12.80
2023-01-22T21:21:57.291Z,12.52
2023-01-22T21:24:24.434Z,12.90
2023-01-22T21:26:50.803Z,13.23
2023-01-22T21:29:18.832Z,13.23
2023-01-22T21:31:48.856Z,14.18
2023-01-22T21:34:15.797Z,13.07
2023-01-22T21:36:44.980Z,13.45
2023-01-22T21:39:14.645Z,12.55
2023-01-22T21:41:41.267Z,13.45
2023-01-22T21:44:26.393Z,13.73
2023-01-22T21:46:52.731Z,12.63
2023-01-22T21:49:21.724Z,13.40
2023-01-22T21:51:59.472Z,12.65
2023-01-22T21:54:30.007Z,13.15
2023-01-22T21:56:56.706Z,11.85
2023-01-22T21:59:23.091Z,12.37
2023-01-22T22:01:54.544Z,12.73
2023-01-22T22:04:22.256Z,12.68
2023-01-22T22:09:16.011Z,13.40
2023-01-22T22:14:10.472Z,13.07
2023-01-22T22:16:37.167Z,13.77
2023-01-22T22:19:03.636Z,12.80
2023-01-22T22:21:29.974Z,13.60
2023-01-22T22:23:57.204Z,13.00
2023-01-22T22:26:24.207Z,12.80
2023-01-22T22:28:50.997Z,13.45
2023-01-22T22:31:17.745Z,13.77
2023-01-22T22:33:48.350Z,12.95
2023-01-22T22:36:15.599Z,14.77
2023-01-22T22:38:42.272Z,13.13
2023-01-22T22:41:11.684Z,14.55
2023-01-22T22:43:39.387Z,13.73
2023-01-22T22:46:07.194Z,14.32
2023-01-22T22:48:33.963Z,16.60
2023-01-22T22:51:00.493Z,13.80
2023-01-22T22:53:27.010Z,14.45
2023-01-22T22:55:53.297Z,14.38
2023-01-22T22:58:20.714Z,13.85
2023-01-22T23:00:47.022Z,15.00
2023-01-22T23:03:13.333Z,14.48
2023-01-22T23:05:40.042Z,15.35
2023-01-22T23:08:06.354Z,14.97
2023-01-22T23:10:32.659Z,14.80
2023-01-22T23:13:00.022Z,14.90
2023-01-22T23:15:27.208Z,15.38
2023-01-22T23:17:54.482Z,15.13
2023-01-22T23:20:21.414Z,14.95
2023-01-22T23:22:49.693Z,13.93
2023-01-22T23:25:16.983Z,14.93
2023-01-22T23:27:43.754Z,15.77
2023-01-22T23:30:11.080Z,14.53
2023-01-22T23:32:37.460Z,17.10
2023-01-22T23:35:03.906Z,16.60
2023-01-22T23:37:30.205Z,15.80
2023-01-22T23:39:56.558Z,16.02
2023-01-22T23:42:22.912Z,15.60
2023-01-22T23:44:49.186Z,14.90
2023-01-22T23:47:15.497Z,14.40
2023-01-22T23:49:41.931Z,14.30
2023-01-22T23:52:08.263Z,15.38
2023-01-22T23:54:34.562Z,14.30
2023-01-22T23:57:00.890Z,14.25
2023-01-22T23:59:27.199Z,15.18
